KRIL/RIL METAR and TAF weather

Enter ICAO airport designator
Station Type Date Time Source
KRIL METAR 2019/02/22 21:53 UTC NOAA

KRIL 222153Z AUTO 27004KT 10SM FEW015 OVC048 01/M02 A2970 RMK AO2 SNB2056E28 SLP070 P0000 T00061022


Station Type Date Time Source
KRIL Decoded METAR 2019/02/22 21:53 UTC NOAA

RIFLE GARFIELD COUNTY RGNL, CO, United States (KRIL) 39-31N 107-44W 1678M
Feb 22, 2019 - 04:53 PM EST / 2019.02.22 2153 UTC
Wind: from the W (270 degrees) at 5 MPH (4 KT):0
Visibility: 10 mile(s):0
Sky conditions: overcast
Precipitation last hour: A trace
Temperature: 33.1 F (0.6 C)
Windchill: 28 F (-2 C):1
Dew Point: 28.0 F (-2.2 C)
Relative Humidity: 81%
Pressure (altimeter): 29.7 in. Hg (1005 hPa)
ob: KRIL 222153Z AUTO 27004KT 10SM FEW015 OVC048 01/M02 A2970 RMK AO2 SNB2056E28 SLP070 P0000 T00061022
cycle: 22

Station Type Date Time Source
KRIL TAF 2019/02/22 18:30 UTC NOAA

TAF KRIL 221728Z 2218/2318 14004KT 1 1/2SM -SN FEW005 BKN020
TEMPO 2218/2220 1SM -SN BKN006 BKN020
FM222000 00000KT P6SM VCSH SCT020 OVC035
FM230000 30007KT P6SM VCSH OVC030
FM230400 30008KT P6SM SCT030 OVC050
FM230900 28006KT P6SM FEW080 SCT090


Example: see airport list